KGVT/GVT METAR and TAF weather

Enter ICAO airport designator
Station Type Date Time Source
KGVT METAR 2022/12/04 04:35 UTC NOAA

KGVT 040435Z AUTO 01005KT 10SM OVC032 08/M01 A3039 RMK AO2 TSNO T00771010


Station Type Date Time Source
KGVT Decoded METAR 2022/12/04 04:35 UTC NOAA

Greenville / Majors, TX, United States (KGVT) 33-04N 096-04W
Dec 03, 2022 - 11:35 PM EST / 2022.12.04 0435 UTC
Wind: from the N (010 degrees) at 6 MPH (5 KT):0
Visibility: 10 mile(s):0
Sky conditions: overcast
Temperature: 45.9 F (7.7 C)
Dew Point: 30.2 F (-1.0 C)
Relative Humidity: 54%
Pressure (altimeter): 30.39 in. Hg (1029 hPa)
ob: KGVT 040435Z AUTO 01005KT 10SM OVC032 08/M01 A3039 RMK AO2 TSNO T00771010
cycle: 4

Station Type Date Time Source
KGVT TAF UTC NOAA

Error!

Example: see airport list